Time,TemperatureF,DewpointF,PressureIn,WindDirection,WindDirectionDegrees,WindSpeedMPH,WindSpeedGustMPH,Humidity,HourlyPrecipIn,Conditions,Clouds,dailyrainin,SolarRadiationWatts/m^2,SoftwareType,DateUTC
2013-05-19 00:01:00,48.0,34.0,-100.00,WNW,291,7.0,13.0,59,0.00,,,0.00,1.000000,,2013-05-19 07:01:00,
2013-05-19 00:32:00,50.0,34.0,-100.00,WNW,303,10.0,15.0,53,0.00,,,0.00,1.000000,,2013-05-19 07:32:00,
2013-05-19 00:42:00,50.0,34.0,-100.00,WNW,303,10.0,15.0,53,0.00,,,0.00,1.000000,,2013-05-19 07:42:00,
2013-05-19 00:52:00,50.0,34.0,-100.00,WNW,303,10.0,15.0,53,0.00,,,0.00,1.000000,,2013-05-19 07:52:00,
2013-05-19 01:01:00,50.0,34.0,-100.00,WNW,303,10.0,15.0,53,0.00,,,0.00,1.000000,,2013-05-19 08:01:00,
2013-05-19 01:32:00,45.0,34.0,-100.00,WSW,256,7.0,16.0,64,0.00,,,0.00,1.000000,,2013-05-19 08:32:00,
2013-05-19 01:42:00,45.0,34.0,-100.00,WSW,256,7.0,16.0,64,0.00,,,0.00,1.000000,,2013-05-19 08:42:00,
2013-05-19 01:52:00,45.0,34.0,-100.00,WSW,256,7.0,16.0,64,0.00,,,0.00,1.000000,,2013-05-19 08:52:00,
2013-05-19 02:02:00,45.0,34.0,-100.00,WSW,256,7.0,16.0,64,0.00,,,0.00,1.000000,,2013-05-19 09:02:00,
2013-05-19 02:33:00,43.0,33.0,-100.00,WNW,290,1.0,9.0,67,0.00,,,0.00,1.000000,,2013-05-19 09:33:00,
2013-05-19 02:43:00,43.0,33.0,-100.00,WNW,290,1.0,9.0,67,0.00,,,0.00,1.000000,,2013-05-19 09:43:00,
2013-05-19 02:53:00,43.0,33.0,-100.00,WNW,290,1.0,9.0,67,0.00,,,0.00,1.000000,,2013-05-19 09:53:00,
2013-05-19 03:02:00,43.0,33.0,-100.00,WNW,290,1.0,9.0,67,0.00,,,0.00,1.000000,,2013-05-19 10:02:00,
2013-05-19 03:33:00,41.0,32.0,-100.00,SSW,204,3.0,4.0,69,0.00,,,0.00,1.000000,,2013-05-19 10:33:00,
2013-05-19 03:42:00,41.0,32.0,-100.00,SSW,204,3.0,4.0,69,0.00,,,0.00,1.000000,,2013-05-19 10:42:00,
2013-05-19 03:52:00,41.0,32.0,-100.00,SSW,204,3.0,4.0,69,0.00,,,0.00,1.000000,,2013-05-19 10:52:00,
2013-05-19 04:02:00,41.0,32.0,-100.00,SSW,204,3.0,4.0,69,0.00,,,0.00,1.000000,,2013-05-19 11:02:00,
2013-05-19 04:32:00,41.0,33.0,-100.00,SSE,164,2.0,6.0,74,0.00,,,0.00,1.000000,,2013-05-19 11:32:00,
2013-05-19 04:42:00,41.0,33.0,-100.00,SSE,164,2.0,6.0,74,0.00,,,0.00,1.000000,,2013-05-19 11:42:00,
2013-05-19 04:52:00,41.0,33.0,-100.00,SSE,164,2.0,6.0,74,0.00,,,0.00,1.000000,,2013-05-19 11:52:00,
2013-05-19 05:01:00,41.0,33.0,-100.00,SSE,164,2.0,6.0,74,0.00,,,0.00,1.000000,,2013-05-19 12:01:00,
2013-05-19 05:32:00,41.0,33.0,-100.00,SW,217,3.0,5.0,73,0.00,,,0.00,1.000000,,2013-05-19 12:32:00,
2013-05-19 05:42:00,41.0,33.0,-100.00,SW,217,3.0,5.0,73,0.00,,,0.00,1.000000,,2013-05-19 12:42:00,
2013-05-19 05:52:00,41.0,33.0,-100.00,SW,217,3.0,5.0,73,0.00,,,0.00,1.000000,,2013-05-19 12:52:00,
2013-05-19 06:01:00,41.0,33.0,-100.00,SW,217,3.0,5.0,73,0.00,,,0.00,1.000000,,2013-05-19 13:01:00,
2013-05-19 07:32:00,51.0,37.0,-100.00,ESE,103,3.0,5.0,58,-99.99,,,0.00,133.000000,,2013-05-19 14:32:00,
2013-05-19 07:42:00,51.0,37.0,-100.00,ESE,103,3.0,5.0,58,-99.99,,,0.00,133.000000,,2013-05-19 14:42:00,
2013-05-19 07:52:00,51.0,37.0,-100.00,ESE,103,3.0,5.0,58,-99.99,,,0.00,133.000000,,2013-05-19 14:52:00,
2013-05-19 08:01:00,51.0,37.0,-100.00,ESE,103,3.0,5.0,58,-99.99,,,0.00,133.000000,,2013-05-19 15:01:00,
2013-05-19 08:33:00,55.0,36.0,-100.00,North,360,7.0,10.0,49,0.00,,,0.00,317.000000,,2013-05-19 15:33:00,
2013-05-19 08:43:00,55.0,36.0,-100.00,North,360,7.0,10.0,49,0.00,,,0.00,317.000000,,2013-05-19 15:43:00,
2013-05-19 08:53:00,55.0,36.0,-100.00,North,360,7.0,10.0,49,0.00,,,0.00,317.000000,,2013-05-19 15:53:00,
2013-05-19 09:03:00,55.0,36.0,-100.00,North,360,7.0,10.0,49,0.00,,,0.00,317.000000,,2013-05-19 16:03:00,
2013-05-19 09:32:00,59.0,36.0,-100.00,NW,324,10.0,15.0,42,0.00,,,0.00,498.000000,,2013-05-19 16:32:00,
2013-05-19 09:42:00,59.0,36.0,-100.00,NW,324,10.0,15.0,42,0.00,,,0.00,498.000000,,2013-05-19 16:42:00,
2013-05-19 09:52:00,59.0,36.0,-100.00,NW,324,10.0,15.0,42,0.00,,,0.00,498.000000,,2013-05-19 16:52:00,
2013-05-19 10:01:00,59.0,36.0,-100.00,NW,324,10.0,15.0,42,0.00,,,0.00,498.000000,,2013-05-19 17:01:00,
2013-05-19 10:32:00,62.0,35.0,-100.00,North,355,8.0,18.0,36,0.00,,,0.00,670.000000,,2013-05-19 17:32:00,
2013-05-19 10:43:00,62.0,35.0,-100.00,North,355,8.0,18.0,36,0.00,,,0.00,670.000000,,2013-05-19 17:43:00,
2013-05-19 10:52:00,62.0,35.0,-100.00,North,355,8.0,18.0,36,0.00,,,0.00,670.000000,,2013-05-19 17:52:00,
2013-05-19 11:02:00,62.0,35.0,-100.00,North,355,8.0,18.0,36,0.00,,,0.00,670.000000,,2013-05-19 18:02:00,
2013-05-19 11:32:00,65.0,35.0,-100.00,NNW,345,11.0,18.0,33,0.00,,,0.00,854.000000,,2013-05-19 18:32:00,
2013-05-19 11:43:00,65.0,35.0,-100.00,NNW,345,11.0,18.0,33,0.00,,,0.00,854.000000,,2013-05-19 18:43:00,
2013-05-19 11:53:00,65.0,35.0,-100.00,NNW,345,11.0,18.0,33,0.00,,,0.00,854.000000,,2013-05-19 18:53:00,
2013-05-19 12:01:00,65.0,35.0,-100.00,NNW,345,11.0,18.0,33,0.00,,,0.00,854.000000,,2013-05-19 19:01:00,
2013-05-19 12:32:00,64.0,34.0,-100.00,WNW,286,5.0,16.0,33,0.00,,,0.00,866.000000,,2013-05-19 19:32:00,
2013-05-19 12:42:00,64.0,34.0,-100.00,WNW,286,5.0,16.0,33,0.00,,,0.00,866.000000,,2013-05-19 19:42:00,
2013-05-19 12:52:00,64.0,34.0,-100.00,WNW,286,5.0,16.0,33,0.00,,,0.00,866.000000,,2013-05-19 19:52:00,
2013-05-19 13:02:00,64.0,34.0,-100.00,WNW,286,5.0,16.0,33,0.00,,,0.00,866.000000,,2013-05-19 20:02:00,
2013-05-19 13:32:00,66.0,35.0,-100.00,NNW,331,9.0,13.0,32,0.00,,,0.00,704.000000,,2013-05-19 20:32:00,
2013-05-19 13:42:00,66.0,35.0,-100.00,NNW,331,9.0,13.0,32,0.00,,,0.00,704.000000,,2013-05-19 20:42:00,
2013-05-19 13:52:00,66.0,35.0,-100.00,NNW,331,9.0,13.0,32,0.00,,,0.00,704.000000,,2013-05-19 20:52:00,
2013-05-19 14:02:00,66.0,35.0,-100.00,NNW,331,9.0,13.0,32,0.00,,,0.00,704.000000,,2013-05-19 21:02:00,
2013-05-19 14:32:00,66.0,35.0,-100.00,NW,312,5.0,11.0,32,0.00,,,0.00,492.000000,,2013-05-19 21:32:00,
2013-05-19 14:43:00,66.0,35.0,-100.00,NW,312,5.0,11.0,32,0.00,,,0.00,492.000000,,2013-05-19 21:43:00,
2013-05-19 14:53:00,66.0,35.0,-100.00,NW,312,5.0,11.0,32,0.00,,,0.00,492.000000,,2013-05-19 21:53:00,
2013-05-19 15:02:00,66.0,35.0,-100.00,NW,312,5.0,11.0,32,0.00,,,0.00,492.000000,,2013-05-19 22:02:00,
2013-05-19 15:33:00,70.0,36.0,-100.00,WNW,289,5.0,14.0,29,0.00,,,0.00,661.000000,,2013-05-19 22:33:00,
2013-05-19 15:42:00,70.0,36.0,-100.00,WNW,289,5.0,14.0,29,0.00,,,0.00,661.000000,,2013-05-19 22:42:00,
2013-05-19 15:53:00,70.0,36.0,-100.00,WNW,289,5.0,14.0,29,0.00,,,0.00,661.000000,,2013-05-19 22:53:00,
2013-05-19 16:02:00,70.0,36.0,-100.00,WNW,289,5.0,14.0,29,0.00,,,0.00,661.000000,,2013-05-19 23:02:00,
2013-05-19 16:32:00,68.0,35.0,-100.00,NW,311,7.0,15.0,30,0.00,,,0.00,434.000000,,2013-05-19 23:32:00,
2013-05-19 16:42:00,68.0,35.0,-100.00,NW,311,7.0,15.0,30,0.00,,,0.00,434.000000,,2013-05-19 23:42:00,
2013-05-19 16:52:00,68.0,35.0,-100.00,NW,311,7.0,15.0,30,0.00,,,0.00,434.000000,,2013-05-19 23:52:00,
2013-05-19 17:01:00,68.0,35.0,-100.00,NW,311,7.0,15.0,30,0.00,,,0.00,434.000000,,2013-05-20 00:01:00,
2013-05-19 17:32:00,68.0,32.0,-100.00,WNW,293,12.0,20.0,26,0.00,,,-99.99,641.000000,,2013-05-20 00:32:00,
2013-05-19 17:42:00,68.0,32.0,-100.00,WNW,293,12.0,20.0,26,0.00,,,-99.99,641.000000,,2013-05-20 00:42:00,
2013-05-19 17:52:00,68.0,32.0,-100.00,WNW,293,12.0,20.0,26,0.00,,,-99.99,641.000000,,2013-05-20 00:52:00,
2013-05-19 18:01:00,68.0,32.0,-100.00,WNW,293,12.0,20.0,26,0.00,,,-99.99,641.000000,,2013-05-20 01:01:00,
2013-05-19 18:32:00,67.0,33.0,-100.00,West,280,13.0,19.0,28,0.00,,,0.00,486.000000,,2013-05-20 01:32:00,
2013-05-19 18:42:00,67.0,33.0,-100.00,West,280,13.0,19.0,28,0.00,,,0.00,486.000000,,2013-05-20 01:42:00,
2013-05-19 18:52:00,67.0,33.0,-100.00,West,280,13.0,19.0,28,0.00,,,0.00,486.000000,,2013-05-20 01:52:00,
2013-05-19 19:01:00,67.0,33.0,-100.00,West,280,13.0,19.0,28,0.00,,,0.00,486.000000,,2013-05-20 02:01:00,
2013-05-19 19:32:00,63.0,34.0,-100.00,NW,307,13.0,19.0,34,0.00,,,0.00,301.000000,,2013-05-20 02:32:00,
2013-05-19 19:42:00,63.0,34.0,-100.00,NW,307,13.0,19.0,34,0.00,,,0.00,301.000000,,2013-05-20 02:42:00,
2013-05-19 19:52:00,63.0,34.0,-100.00,NW,307,13.0,19.0,34,0.00,,,0.00,301.000000,,2013-05-20 02:52:00,
2013-05-19 20:01:00,63.0,34.0,-100.00,NW,307,13.0,19.0,34,0.00,,,0.00,301.000000,,2013-05-20 03:01:00,
2013-05-19 20:33:00,59.0,35.0,-100.00,NNW,345,8.0,15.0,40,0.00,,,0.00,117.000000,,2013-05-20 03:33:00,
2013-05-19 20:43:00,59.0,35.0,-100.00,NNW,345,8.0,15.0,40,0.00,,,0.00,117.000000,,2013-05-20 03:43:00,
2013-05-19 20:52:00,59.0,35.0,-100.00,NNW,345,8.0,15.0,40,0.00,,,0.00,117.000000,,2013-05-20 03:52:00,
2013-05-19 21:02:00,59.0,35.0,-100.00,NNW,345,8.0,15.0,40,0.00,,,0.00,117.000000,,2013-05-20 04:02:00,
2013-05-19 21:33:00,54.0,35.0,-100.00,North,353,5.0,11.0,48,0.00,,,0.00,11.000000,,2013-05-20 04:33:00,
2013-05-19 21:43:00,54.0,35.0,-100.00,North,353,5.0,11.0,48,0.00,,,0.00,11.000000,,2013-05-20 04:43:00,
2013-05-19 21:52:00,54.0,35.0,-100.00,North,353,5.0,11.0,48,0.00,,,0.00,11.000000,,2013-05-20 04:52:00,
2013-05-19 22:02:00,54.0,35.0,-100.00,North,353,5.0,11.0,48,0.00,,,0.00,11.000000,,2013-05-20 05:02:00,
2013-05-19 22:32:00,46.0,32.0,-100.00,SSE,151,2.0,6.0,59,0.00,,,0.00,1.000000,,2013-05-20 05:32:00,
2013-05-19 22:42:00,46.0,32.0,-100.00,SSE,151,2.0,6.0,59,0.00,,,0.00,1.000000,,2013-05-20 05:42:00,
2013-05-19 22:52:00,46.0,32.0,-100.00,SSE,151,2.0,6.0,59,0.00,,,0.00,1.000000,,2013-05-20 05:52:00,
2013-05-19 23:01:00,46.0,32.0,-100.00,SSE,151,2.0,6.0,59,0.00,,,0.00,1.000000,,2013-05-20 06:01:00,
2013-05-19 23:32:00,44.0,33.0,-100.00,SE,140,4.0,7.0,65,0.00,,,0.00,1.000000,,2013-05-20 06:32:00,
2013-05-19 23:42:00,44.0,33.0,-100.00,SE,140,4.0,7.0,65,0.00,,,0.00,1.000000,,2013-05-20 06:42:00,
2013-05-19 23:52:00,44.0,33.0,-100.00,SE,140,4.0,7.0,65,0.00,,,0.00,1.000000,,2013-05-20 06:52:00,